Time;durP1;ratioP1;P1;durP2;ratioP2;P2;SDS_P1;SDS_P2;PMS_P1;PMS_P2;Temp;Humidity;BMP_temperature;BMP_pressure;BME280_temperature;BME280_humidity;BME280_pressure;Samples;Min_cycle;Max_cycle;Signal;HPM_P1;HPM_P2
2022/12/31 00:01:33;;;;;;;;;;;;;;;22.63;20.98;98207.34;4975758;28;19925;-90
2022/12/31 00:03:59;;;;;;;;;;;;;;;22.84;20.55;98205.44;4991644;28;20333;-91
2022/12/31 00:06:29;;;;;;;;;;;;;;;22.90;20.62;98210.16;4995011;28;19917;-91
2022/12/31 00:08:56;;;;;;;;;;;;;;;22.38;21.27;98203.28;4994987;28;19928;-90
2022/12/31 00:11:23;;;;;;;;;;;;;;;22.07;21.55;98210.06;4994604;28;20012;-90
2022/12/31 00:13:50;;;;;;;;;;;;;;;22.58;21.20;98207.00;4977546;28;19929;-89
2022/12/31 00:16:17;;;;;;;;;;;;;;;22.75;20.92;98208.00;4995028;28;19925;-89
2022/12/31 00:18:47;;;;;;;;;;;;;;;22.99;20.54;98213.19;4994344;28;20356;-89
2022/12/31 00:21:14;;;;;;;;;;;;;;;23.25;20.45;98215.19;4993257;28;19918;-89
2022/12/31 00:23:40;;;;;;;;;;;;;;;23.13;20.46;98223.38;4994886;28;20004;-89
2022/12/31 00:26:11;;;;;;;;;;;;;;;23.37;20.08;98225.03;4994675;28;19925;-90
2022/12/31 00:28:38;;;;;;;;;;;;;;;23.39;19.83;98219.78;4994578;28;20301;-90
2022/12/31 00:31:09;;;;;;;;;;;;;;;22.28;20.90;98224.56;4995101;28;19960;-90
2022/12/31 00:33:35;;;;;;;;;;;;;;;22.51;20.62;98210.69;4977124;28;20329;-90
2022/12/31 00:36:07;;;;;;;;;;;;;;;22.33;20.84;98214.94;4987697;28;19965;-90
2022/12/31 00:38:34;;;;;;;;;;;;;;;21.89;21.84;98211.03;4992476;28;19925;-90
2022/12/31 00:41:00;;;;;;;;;;;;;;;22.31;21.14;98212.53;4994878;28;19972;-90
2022/12/31 00:43:26;;;;;;;;;;;;;;;22.66;20.84;98206.50;4994264;28;19925;-90
2022/12/31 00:45:52;;;;;;;;;;;;;;;22.52;20.88;98215.06;4994170;28;19918;-89
2022/12/31 00:48:18;;;;;;;;;;;;;;;21.94;21.89;98226.56;4994441;28;19921;-89
2022/12/31 00:50:44;;;;;;;;;;;;;;;22.50;21.64;98231.47;4994531;28;19917;-90
2022/12/31 00:53:10;;;;;;;;;;;;;;;23.18;20.90;98226.50;4992172;28;19922;-89
2022/12/31 00:55:36;;;;;;;;;;;;;;;23.06;20.11;98215.09;4986924;28;20020;-90
2022/12/31 00:58:02;;;;;;;;;;;;;;;23.14;20.37;98222.97;4992679;28;20354;-89
2022/12/31 01:00:28;;;;;;;;;;;;;;;23.02;20.60;98217.97;4985894;28;20004;-89
2022/12/31 01:02:55;;;;;;;;;;;;;;;22.61;20.05;98217.38;4983338;28;19996;-90
2022/12/31 01:05:21;;;;;;;;;;;;;;;21.69;21.75;98215.63;4994385;28;19917;-90
2022/12/31 01:07:47;;;;;;;;;;;;;;;22.18;21.81;98205.13;4993925;28;19918;-89
2022/12/31 01:11:17;;;;;;;;;;;;;;;22.14;21.51;98199.56;4992446;28;20386;-89
2022/12/31 01:12:59;;;;;;;;;;;;;;;22.39;21.74;98186.06;4990016;28;19968;-89
2022/12/31 01:15:25;;;;;;;;;;;;;;;22.70;21.13;98192.47;4994454;28;19975;-88
2022/12/31 01:17:51;;;;;;;;;;;;;;;22.77;21.82;98183.97;4993972;28;19918;-89
2022/12/31 01:20:17;;;;;;;;;;;;;;;23.20;21.71;98184.84;4994110;28;20263;-89
2022/12/31 01:22:43;;;;;;;;;;;;;;;23.62;21.43;98180.53;4994230;28;19918;-89
2022/12/31 01:25:09;;;;;;;;;;;;;;;23.97;21.25;98181.88;4993945;28;20417;-89
2022/12/31 01:27:35;;;;;;;;;;;;;;;24.02;21.00;98179.38;4993729;28;20366;-89
2022/12/31 01:30:01;;;;;;;;;;;;;;;23.93;20.88;98181.94;4980438;28;20016;-89
2022/12/31 01:32:27;;;;;;;;;;;;;;;23.88;21.49;98184.47;4978401;28;19922;-89
2022/12/31 01:34:53;;;;;;;;;;;;;;;23.64;21.82;98180.13;4978845;28;19941;-89
2022/12/31 01:37:19;;;;;;;;;;;;;;;23.91;21.36;98180.81;4995381;28;20305;-89
2022/12/31 01:39:45;;;;;;;;;;;;;;;24.31;20.12;98179.59;4997610;28;19918;-89
2022/12/31 01:42:11;;;;;;;;;;;;;;;24.30;20.40;98189.25;4997644;28;19918;-89
2022/12/31 01:44:37;;;;;;;;;;;;;;;24.28;19.80;98174.06;4997371;28;19996;-89
2022/12/31 01:47:04;;;;;;;;;;;;;;;24.08;20.51;98176.09;4997158;28;19925;-89
2022/12/31 01:49:35;;;;;;;;;;;;;;;24.02;20.82;98176.56;4997850;28;19918;-89
2022/12/31 01:52:06;;;;;;;;;;;;;;;23.65;21.11;98181.69;4997886;28;19922;-90
2022/12/31 01:54:34;;;;;;;;;;;;;;;23.76;20.98;98171.06;4997493;28;19922;-90
2022/12/31 01:57:02;;;;;;;;;;;;;;;23.81;21.22;98178.97;4979688;28;20302;-90
2022/12/31 01:59:29;;;;;;;;;;;;;;;24.11;20.83;98186.47;4997561;28;19964;-91
2022/12/31 02:01:55;;;;;;;;;;;;;;;24.41;20.47;98175.75;4989375;28;19922;-91
2022/12/31 02:04:22;;;;;;;;;;;;;;;24.50;20.25;98175.19;4977974;28;20010;-91
2022/12/31 02:06:59;;;;;;;;;;;;;;;24.32;20.49;98172.00;4977018;28;19941;-91
2022/12/31 02:09:25;;;;;;;;;;;;;;;24.33;20.90;98177.16;4977342;28;19922;-90
2022/12/31 02:11:51;;;;;;;;;;;;;;;24.27;20.72;98183.72;4992978;28;19965;-90
2022/12/31 02:14:19;;;;;;;;;;;;;;;24.04;21.16;98188.13;4997716;28;19926;-90
2022/12/31 02:16:56;;;;;;;;;;;;;;;24.28;21.21;98183.28;4997350;28;19918;-90
2022/12/31 02:19:25;;;;;;;;;;;;;;;24.48;21.07;98186.06;4988698;28;20274;-90
2022/12/31 02:22:12;;;;;;;;;;;;;;;24.77;20.38;98195.44;4980005;28;19918;-91
2022/12/31 02:24:57;;;;;;;;;;;;;;;25.07;20.23;98194.34;4979804;28;19925;-90
2022/12/31 02:27:41;;;;;;;;;;;;;;;25.00;19.85;98198.13;4996931;28;20432;-90
2022/12/31 02:30:07;;;;;;;;;;;;;;;24.00;20.05;98186.63;4997059;28;20428;-91
2022/12/31 02:32:42;;;;;;;;;;;;;;;23.75;21.01;98187.13;4996806;28;19918;-91
2022/12/31 02:35:13;;;;;;;;;;;;;;;23.79;21.65;98201.84;4995017;28;19943;-90
2022/12/31 02:37:40;;;;;;;;;;;;;;;24.20;21.15;98198.66;4996158;28;19933;-91
2022/12/31 02:40:08;;;;;;;;;;;;;;;24.58;20.48;98194.25;4978872;28;19914;-91
2022/12/31 02:42:34;;;;;;;;;;;;;;;23.73;21.09;98191.56;4996082;28;19924;-90
2022/12/31 02:45:00;;;;;;;;;;;;;;;23.70;21.92;98198.81;4996745;28;19950;-91
2022/12/31 02:47:45;;;;;;;;;;;;;;;23.09;22.60;98217.06;4996342;28;19918;-91
2022/12/31 02:50:24;;;;;;;;;;;;;;;23.71;22.48;98208.03;4996396;28;19917;-91
2022/12/31 02:52:58;;;;;;;;;;;;;;;24.29;21.39;98212.94;4995861;28;19981;-91
2022/12/31 02:55:36;;;;;;;;;;;;;;;24.88;20.48;98209.28;4995184;28;19925;-91
2022/12/31 02:58:02;;;;;;;;;;;;;;;24.42;21.16;98207.44;4979078;28;19976;-91
2022/12/31 03:03:14;;;;;;;;;;;;;;;24.69;20.94;98211.63;4996558;28;19973;-95
2022/12/31 03:05:42;;;;;;;;;;;;;;;24.80;21.44;98207.84;4996519;28;20389;-94
2022/12/31 03:08:08;;;;;;;;;;;;;;;24.44;21.40;98214.19;4978151;28;19922;-93
2022/12/31 03:10:34;;;;;;;;;;;;;;;24.23;21.98;98216.66;4977533;28;19918;-90
2022/12/31 03:13:01;;;;;;;;;;;;;;;24.85;21.56;98212.94;4996145;28;19925;-91
2022/12/31 03:15:29;;;;;;;;;;;;;;;25.12;20.30;98211.47;4996081;28;20321;-91
2022/12/31 03:17:59;;;;;;;;;;;;;;;25.15;20.09;98198.56;4995966;28;19917;-92
2022/12/31 03:23:24;;;;;;;;;;;;;;;23.65;21.44;98192.91;4995850;28;19925;-92
2022/12/31 03:25:52;;;;;;;;;;;;;;;23.20;22.26;98184.84;4995680;28;19922;-92
2022/12/31 03:28:19;;;;;;;;;;;;;;;23.09;22.79;98175.03;4967695;28;19919;-92
2022/12/31 03:30:46;;;;;;;;;;;;;;;22.05;24.32;98190.91;4976406;28;19918;-92
2022/12/31 03:33:13;;;;;;;;;;;;;;;22.69;23.60;98183.28;4976106;28;19949;-92
2022/12/31 03:35:40;;;;;;;;;;;;;;;23.68;22.75;98167.63;4982359;28;19924;-92
2022/12/31 03:38:06;;;;;;;;;;;;;;;24.36;21.49;98158.66;4977785;28;20008;-92
2022/12/31 03:40:35;;;;;;;;;;;;;;;24.44;20.93;98148.84;4996037;28;19917;-92
2022/12/31 03:43:01;;;;;;;;;;;;;;;24.55;20.42;98147.38;4994190;28;19968;-90
2022/12/31 03:45:27;;;;;;;;;;;;;;;24.51;20.66;98155.09;4983399;28;19929;-91
2022/12/31 03:47:53;;;;;;;;;;;;;;;24.28;21.40;98149.59;4976313;28;19964;-91
2022/12/31 03:50:19;;;;;;;;;;;;;;;23.53;22.07;98166.28;4989344;28;20014;-92
2022/12/31 03:52:46;;;;;;;;;;;;;;;23.94;22.17;98166.69;4974920;28;19918;-92
2022/12/31 03:55:12;;;;;;;;;;;;;;;23.90;22.32;98179.19;4976016;28;19925;-93
2022/12/31 03:57:38;;;;;;;;;;;;;;;22.71;24.03;98196.81;4976083;28;19918;-93
2022/12/31 04:00:05;;;;;;;;;;;;;;;23.12;24.08;98197.41;4975875;28;19936;-93
2022/12/31 04:02:31;;;;;;;;;;;;;;;24.05;23.01;98211.38;4987416;28;20305;-91
2022/12/31 04:04:57;;;;;;;;;;;;;;;24.74;21.45;98210.31;4986094;28;19922;-93
2022/12/31 04:07:23;;;;;;;;;;;;;;;25.00;20.77;98225.41;4995295;28;19918;-93
2022/12/31 04:09:49;;;;;;;;;;;;;;;24.59;21.13;98223.91;4995082;28;19972;-92
2022/12/31 04:12:15;;;;;;;;;;;;;;;24.79;21.56;98231.50;4994519;28;19917;-92
2022/12/31 04:14:41;;;;;;;;;;;;;;;25.04;20.77;98226.91;4994891;28;19948;-92
2022/12/31 04:17:07;;;;;;;;;;;;;;;24.34;21.80;98232.03;4994058;28;19998;-91
2022/12/31 04:19:33;;;;;;;;;;;;;;;24.42;21.84;98229.88;4975186;28;20432;-91
2022/12/31 04:21:59;;;;;;;;;;;;;;;24.25;21.96;98240.25;4975163;28;19922;-92
2022/12/31 04:24:26;;;;;;;;;;;;;;;24.50;21.68;98242.56;4975671;28;19925;-93
2022/12/31 04:26:52;;;;;;;;;;;;;;;24.86;21.08;98234.97;4975425;28;19914;-93
2022/12/31 04:29:18;;;;;;;;;;;;;;;25.09;21.19;98222.78;4975715;28;19925;-92
2022/12/31 04:31:44;;;;;;;;;;;;;;;25.22;20.95;98210.44;4975357;28;19914;-93
2022/12/31 04:34:10;;;;;;;;;;;;;;;24.73;21.15;98220.00;4975653;28;19922;-93
2022/12/31 04:36:36;;;;;;;;;;;;;;;24.63;21.57;98221.81;4976666;28;20012;-93
2022/12/31 04:39:02;;;;;;;;;;;;;;;24.33;21.90;98230.47;4994746;28;20377;-93
2022/12/31 04:41:28;;;;;;;;;;;;;;;24.01;22.45;98241.50;4977379;28;20017;-93
2022/12/31 04:43:58;;;;;;;;;;;;;;;24.29;22.28;98234.56;4977208;28;19922;-93
2022/12/31 04:46:28;;;;;;;;;;;;;;;24.82;22.04;98237.06;4994857;28;19917;-93
2022/12/31 04:48:55;;;;;;;;;;;;;;;25.22;21.65;98227.31;4987551;28;20279;-93
2022/12/31 04:51:21;;;;;;;;;;;;;;;25.42;20.98;98230.00;4978372;28;19918;-93
2022/12/31 04:53:48;;;;;;;;;;;;;;;25.36;20.84;98226.94;4975618;28;20282;-93
2022/12/31 04:56:15;;;;;;;;;;;;;;;24.58;21.60;98229.94;4974978;28;19918;-93
2022/12/31 04:58:41;;;;;;;;;;;;;;;24.47;21.60;98238.59;4975107;28;19933;-93
2022/12/31 05:01:07;;;;;;;;;;;;;;;24.55;21.64;98236.44;4975221;28;19918;-93
2022/12/31 05:03:34;;;;;;;;;;;;;;;24.55;22.09;98242.06;4975179;28;19922;-91
2022/12/31 05:06:01;;;;;;;;;;;;;;;24.66;21.98;98245.41;4977718;28;20374;-92
2022/12/31 05:08:27;;;;;;;;;;;;;;;23.83;23.01;98264.25;4992334;28;19929;-92
2022/12/31 05:10:53;;;;;;;;;;;;;;;23.94;23.08;98273.25;4997800;28;20008;-92
2022/12/31 05:13:19;;;;;;;;;;;;;;;24.35;22.63;98272.13;4998483;28;19965;-92
2022/12/31 05:15:46;;;;;;;;;;;;;;;24.38;22.83;98276.88;4998462;28;19918;-92
2022/12/31 05:18:12;;;;;;;;;;;;;;;24.49;22.59;98278.25;4998166;28;19918;-92
2022/12/31 05:20:38;;;;;;;;;;;;;;;24.28;23.46;98286.28;4998183;28;19918;-92
2022/12/31 05:23:04;;;;;;;;;;;;;;;24.81;22.72;98282.44;4998213;28;19925;-92
2022/12/31 05:25:31;;;;;;;;;;;;;;;24.20;23.73;98273.66;4976577;28;19918;-93
2022/12/31 05:27:57;;;;;;;;;;;;;;;25.01;23.20;98269.94;4994156;28;19918;-92
2022/12/31 05:30:23;;;;;;;;;;;;;;;25.35;22.49;98273.16;4998109;28;19918;-93
2022/12/31 05:32:49;;;;;;;;;;;;;;;25.22;22.71;98266.63;4997995;28;19975;-93
2022/12/31 05:35:16;;;;;;;;;;;;;;;24.25;23.90;98268.31;4986470;28;19918;-93
2022/12/31 05:37:42;;;;;;;;;;;;;;;24.91;23.47;98278.59;4978408;28;19918;-92
2022/12/31 05:40:08;;;;;;;;;;;;;;;24.71;23.83;98275.81;4961057;28;19914;-93
2022/12/31 05:42:34;;;;;;;;;;;;;;;24.43;24.81;98271.56;4994021;28;20014;-93
2022/12/31 05:45:00;;;;;;;;;;;;;;;25.42;23.36;98264.53;4981412;28;19941;-93
2022/12/31 05:47:27;;;;;;;;;;;;;;;25.64;23.30;98261.22;4977876;28;19922;-93
2022/12/31 05:49:53;;;;;;;;;;;;;;;25.59;23.62;98261.75;4978487;28;19926;-92
2022/12/31 05:52:19;;;;;;;;;;;;;;;24.73;24.08;98262.13;4989873;28;19921;-93
2022/12/31 05:54:45;;;;;;;;;;;;;;;24.66;24.89;98270.69;4997460;28;19918;-95
2022/12/31 05:57:11;;;;;;;;;;;;;;;24.80;24.98;98270.41;4997776;28;19918;-93
2022/12/31 05:59:37;;;;;;;;;;;;;;;25.72;24.05;98271.84;4996704;28;20076;-93
2022/12/31 06:02:03;;;;;;;;;;;;;;;25.50;24.29;98261.59;4980587;28;20377;-92
2022/12/31 06:04:29;;;;;;;;;;;;;;;25.29;24.91;98260.06;4978037;28;19922;-92
2022/12/31 06:06:55;;;;;;;;;;;;;;;25.55;24.63;98261.06;4979770;28;19918;-92
2022/12/31 06:09:21;;;;;;;;;;;;;;;25.05;25.33;98262.22;4996856;28;19968;-92
2022/12/31 06:11:47;;;;;;;;;;;;;;;24.74;25.81;98263.69;4997093;28;19940;-93
2022/12/31 06:14:13;;;;;;;;;;;;;;;25.03;25.60;98256.25;4997237;28;20378;-92
2022/12/31 06:16:39;;;;;;;;;;;;;;;25.31;25.01;98258.41;4995023;28;20451;-93
2022/12/31 06:19:05;;;;;;;;;;;;;;;25.60;24.99;98260.53;4980673;28;19952;-92
2022/12/31 06:21:31;;;;;;;;;;;;;;;25.73;24.84;98272.66;4977644;28;19926;-92
2022/12/31 06:23:58;;;;;;;;;;;;;;;25.01;25.96;98278.38;4977911;28;19918;-93
2022/12/31 06:26:24;;;;;;;;;;;;;;;23.53;28.50;98270.00;4977528;28;19924;-94
2022/12/31 06:28:50;;;;;;;;;;;;;;;24.85;26.70;98289.56;4977940;28;20068;-93
2022/12/31 06:31:16;;;;;;;;;;;;;;;25.41;25.30;98285.44;4976241;28;20383;-92
2022/12/31 06:33:42;;;;;;;;;;;;;;;25.67;25.85;98280.81;4982986;28;20273;-93
2022/12/31 06:36:11;;;;;;;;;;;;;;;25.19;26.38;98284.38;4979843;28;19957;-93
2022/12/31 06:38:38;;;;;;;;;;;;;;;26.05;24.97;98283.84;4976621;28;19918;-92
2022/12/31 06:41:05;;;;;;;;;;;;;;;25.95;25.40;98288.53;4977335;28;19918;-92
2022/12/31 06:43:31;;;;;;;;;;;;;;;25.39;26.27;98296.31;4987666;28;20374;-94
2022/12/31 06:46:01;;;;;;;;;;;;;;;26.16;25.30;98298.47;4996660;28;19918;-91
2022/12/31 06:48:27;;;;;;;;;;;;;;;26.17;25.30;98302.84;4995187;28;19921;-92
2022/12/31 06:50:53;;;;;;;;;;;;;;;26.73;24.39;98301.28;4995871;28;19965;-91
2022/12/31 06:53:19;;;;;;;;;;;;;;;26.07;25.08;98298.25;4977817;28;19926;-92
2022/12/31 06:55:46;;;;;;;;;;;;;;;26.47;24.77;98308.06;4977158;28;19918;-91
2022/12/31 06:58:13;;;;;;;;;;;;;;;26.52;24.84;98304.69;4975418;28;19969;-91
2022/12/31 07:00:52;;;;;;;;;;;;;;;26.15;25.22;98312.97;4976733;28;19922;-91
2022/12/31 07:03:42;;;;;;;;;;;;;;;27.05;24.19;98319.28;4976804;28;19922;-92
2022/12/31 07:06:10;;;;;;;;;;;;;;;26.77;24.62;98308.88;4985391;28;19918;-91
2022/12/31 07:08:48;;;;;;;;;;;;;;;26.83;24.48;98318.34;4984966;28;20379;-91
2022/12/31 07:11:19;;;;;;;;;;;;;;;26.03;25.82;98317.28;4994278;28;20016;-92
2022/12/31 07:13:45;;;;;;;;;;;;;;;25.57;26.68;98320.47;4996102;28;19926;-91
2022/12/31 07:16:49;;;;;;;;;;;;;;;26.34;25.43;98314.88;4996014;28;19969;-92
2022/12/31 07:19:27;;;;;;;;;;;;;;;25.40;26.16;98334.47;4955318;29;20371;-92
2022/12/31 07:21:54;;;;;;;;;;;;;;;26.62;25.71;98316.91;4955083;29;19946;-92
2022/12/31 07:24:20;;;;;;;;;;;;;;;26.89;25.32;98325.00;4977243;28;19922;-92
2022/12/31 07:27:03;;;;;;;;;;;;;;;27.54;25.21;98320.56;4981099;28;19936;-92
2022/12/31 07:29:47;;;;;;;;;;;;;;;27.68;24.16;98313.69;4977130;28;19924;-92
2022/12/31 07:32:29;;;;;;;;;;;;;;;26.88;25.98;98324.22;4976536;28;19914;-92
2022/12/31 07:34:55;;;;;;;;;;;;;;;27.75;24.51;98330.41;4979764;28;19933;-93
2022/12/31 07:37:30;;;;;;;;;;;;;;;26.93;25.10;98342.59;4995573;28;19917;-93
2022/12/31 07:40:17;;;;;;;;;;;;;;;27.64;24.23;98333.56;4995745;28;20321;-93
2022/12/31 07:42:58;;;;;;;;;;;;;;;27.57;24.45;98333.78;4973406;28;19940;-93
2022/12/31 07:45:45;;;;;;;;;;;;;;;26.96;26.10;98334.03;4995914;28;19994;-92
2022/12/31 07:48:21;;;;;;;;;;;;;;;26.51;25.47;98322.81;4995449;28;20013;-93
2022/12/31 07:50:47;;;;;;;;;;;;;;;26.42;25.64;98325.50;4995290;28;19964;-92
2022/12/31 07:53:13;;;;;;;;;;;;;;;26.71;26.18;98317.03;4995390;28;20373;-92
2022/12/31 07:55:39;;;;;;;;;;;;;;;26.82;25.43;98325.19;4995130;28;20016;-92
2022/12/31 07:58:16;;;;;;;;;;;;;;;26.60;26.11;98336.28;4994022;28;19918;-92
2022/12/31 08:00:42;;;;;;;;;;;;;;;26.19;26.54;98339.78;4975635;28;20385;-93
2022/12/31 08:03:27;;;;;;;;;;;;;;;26.25;27.53;98343.66;4976178;28;19973;-92
2022/12/31 08:05:59;;;;;;;;;;;;;;;26.44;26.22;98339.91;4975679;28;19918;-91
2022/12/31 08:08:25;;;;;;;;;;;;;;;26.17;26.61;98344.28;4989318;28;19928;-91
2022/12/31 08:11:14;;;;;;;;;;;;;;;27.18;26.02;98354.72;4995263;28;19917;-92
2022/12/31 08:13:41;;;;;;;;;;;;;;;26.64;26.33;98351.84;4984570;28;19936;-91
2022/12/31 08:16:11;;;;;;;;;;;;;;;25.86;28.72;98355.88;4985437;28;19918;-92
2022/12/31 08:18:37;;;;;;;;;;;;;;;26.38;26.69;98346.53;4975713;28;19961;-92
2022/12/31 08:21:03;;;;;;;;;;;;;;;26.86;26.17;98345.63;4975284;28;19966;-91
2022/12/31 08:23:42;;;;;;;;;;;;;;;26.28;28.85;98339.94;4975333;28;20367;-92
2022/12/31 08:26:19;;;;;;;;;;;;;;;26.47;26.90;98343.88;4975301;28;19919;-92
2022/12/31 08:28:48;;;;;;;;;;;;;;;26.27;26.66;98343.22;4974039;28;20374;-92
2022/12/31 08:31:14;;;;;;;;;;;;;;;26.92;26.06;98355.91;4975550;28;20272;-93
2022/12/31 08:33:51;;;;;;;;;;;;;;;26.61;26.92;98343.47;4975996;28;20334;-93
2022/12/31 08:36:23;;;;;;;;;;;;;;;27.92;25.59;98345.94;4989257;28;19964;-90
2022/12/31 08:38:52;;;;;;;;;;;;;;;27.06;26.43;98337.78;4994101;28;19917;-92
2022/12/31 08:41:18;;;;;;;;;;;;;;;26.85;26.75;98347.66;4994310;28;19924;-92
2022/12/31 08:44:03;;;;;;;;;;;;;;;26.79;26.91;98345.84;4994399;28;20370;-92
2022/12/31 08:46:41;;;;;;;;;;;;;;;26.39;26.56;98343.28;4994566;28;19918;-91
2022/12/31 08:49:08;;;;;;;;;;;;;;;25.80;27.60;98354.03;4993321;28;19918;-92
2022/12/31 08:51:34;;;;;;;;;;;;;;;26.54;27.24;98354.94;4969968;28;20389;-92
2022/12/31 08:54:00;;;;;;;;;;;;;;;27.50;25.85;98350.94;4994413;28;19971;-91
2022/12/31 08:56:27;;;;;;;;;;;;;;;27.49;26.16;98352.19;4994358;28;19917;-91
2022/12/31 08:58:56;;;;;;;;;;;;;;;28.18;25.52;98355.97;4994454;28;19964;-91
2022/12/31 09:01:25;;;;;;;;;;;;;;;27.49;26.90;98357.81;4994578;28;19925;-91
2022/12/31 09:03:54;;;;;;;;;;;;;;;27.86;25.87;98364.69;4994496;28;19918;-91
2022/12/31 09:06:28;;;;;;;;;;;;;;;27.53;27.23;98366.97;4994122;28;19925;-92
2022/12/31 09:08:57;;;;;;;;;;;;;;;28.24;25.19;98364.66;4993527;28;19936;-92
2022/12/31 09:11:33;;;;;;;;;;;;;;;28.95;24.63;98357.28;4993901;28;19925;-91
2022/12/31 09:14:28;;;;;;;;;;;;;;;29.31;23.68;98363.97;4993154;28;19926;-91
2022/12/31 09:17:23;;;;;;;;;;;;;;;27.97;25.00;98360.28;4963977;28;19918;-90
2022/12/31 09:19:49;;;;;;;;;;;;;;;27.72;26.26;98365.16;4994312;28;19918;-91
2022/12/31 09:22:15;;;;;;;;;;;;;;;28.60;24.75;98365.81;4994809;28;19968;-91
2022/12/31 09:24:41;;;;;;;;;;;;;;;27.96;27.42;98355.84;4979918;28;19929;-91
2022/12/31 09:27:26;;;;;;;;;;;;;;;28.20;25.16;98381.72;4975010;28;19925;-91
2022/12/31 09:29:52;;;;;;;;;;;;;;;27.42;26.62;98374.19;4974843;28;19921;-91
2022/12/31 09:32:22;;;;;;;;;;;;;;;28.73;25.28;98375.00;4973398;28;19918;-91
2022/12/31 09:34:48;;;;;;;;;;;;;;;28.57;25.81;98366.69;4974763;28;19954;-91
2022/12/31 09:37:19;;;;;;;;;;;;;;;29.03;24.64;98376.34;4982943;28;20397;-92
2022/12/31 09:39:46;;;;;;;;;;;;;;;29.09;24.72;98366.00;4994124;28;19918;-91
2022/12/31 09:42:31;;;;;;;;;;;;;;;28.26;27.63;98350.88;4975899;28;19918;-91
2022/12/31 09:45:08;;;;;;;;;;;;;;;28.88;25.03;98337.75;4974494;28;19926;-92
2022/12/31 09:47:46;;;;;;;;;;;;;;;27.93;25.82;98344.72;4982477;28;20357;-92
2022/12/31 09:50:25;;;;;;;;;;;;;;;28.81;25.05;98340.84;4995042;28;20337;-92
2022/12/31 09:53:08;;;;;;;;;;;;;;;28.72;25.48;98350.84;4996490;28;20358;-92
2022/12/31 09:55:44;;;;;;;;;;;;;;;28.39;26.41;98345.97;4978136;28;19918;-92
2022/12/31 09:58:28;;;;;;;;;;;;;;;28.50;25.83;98346.38;4979760;28;20300;-92
2022/12/31 10:01:06;;;;;;;;;;;;;;;29.15;25.26;98333.03;4997319;28;19921;-92
2022/12/31 10:03:38;;;;;;;;;;;;;;;28.39;25.77;98346.75;4980078;28;19921;-92
2022/12/31 10:06:04;;;;;;;;;;;;;;;28.82;25.76;98348.06;4997327;28;19922;-92
2022/12/31 10:08:30;;;;;;;;;;;;;;;29.14;25.09;98339.97;4997354;28;19926;-92
2022/12/31 10:10:58;;;;;;;;;;;;;;;29.14;25.20;98342.00;4997357;28;19917;-93
2022/12/31 10:13:33;;;;;;;;;;;;;;;29.49;25.01;98339.84;4979820;28;19929;-92
2022/12/31 10:16:18;;;;;;;;;;;;;;;28.61;25.21;98338.34;4988396;28;19918;-92
2022/12/31 10:18:44;;;;;;;;;;;;;;;29.21;25.78;98344.59;4977775;28;19918;-92
2022/12/31 10:21:16;;;;;;;;;;;;;;;29.38;25.04;98349.53;4977488;28;20362;-92
2022/12/31 10:23:48;;;;;;;;;;;;;;;28.94;25.10;98359.31;4977719;28;19918;-92
2022/12/31 10:26:26;;;;;;;;;;;;;;;29.58;25.04;98354.03;4977547;28;20306;-93
2022/12/31 10:29:05;;;;;;;;;;;;;;;28.90;24.60;98352.19;4977641;28;20345;-91
2022/12/31 10:31:53;;;;;;;;;;;;;;;28.84;26.15;98354.84;4981999;28;19953;-93
2022/12/31 10:34:22;;;;;;;;;;;;;;;29.19;25.74;98359.19;4977771;28;19925;-93
2022/12/31 10:36:51;;;;;;;;;;;;;;;30.00;24.75;98355.16;4981959;28;19946;-91
2022/12/31 10:39:17;;;;;;;;;;;;;;;29.85;24.62;98352.13;4979459;28;19917;-92
2022/12/31 10:42:01;;;;;;;;;;;;;;;29.40;25.11;98361.22;4996625;28;20397;-93
2022/12/31 10:44:53;;;;;;;;;;;;;;;29.04;25.69;98346.00;4997221;28;19929;-92
2022/12/31 10:47:24;;;;;;;;;;;;;;;29.60;26.83;98345.88;4996639;28;19922;-93
2022/12/31 10:49:51;;;;;;;;;;;;;;;29.54;25.36;98336.41;4987166;28;19926;-91
2022/12/31 10:52:19;;;;;;;;;;;;;;;29.53;25.86;98346.16;4996651;28;19925;-92
2022/12/31 10:54:48;;;;;;;;;;;;;;;28.73;25.93;98346.75;4996611;28;20328;-93
2022/12/31 10:57:33;;;;;;;;;;;;;;;29.02;26.44;98343.66;4996424;28;20298;-92
2022/12/31 11:00:11;;;;;;;;;;;;;;;29.08;25.91;98344.63;4996512;28;19917;-92
2022/12/31 11:03:07;;;;;;;;;;;;;;;29.22;25.80;98334.88;4978218;28;19964;-92
2022/12/31 11:05:33;;;;;;;;;;;;;;;28.81;26.24;98335.97;4994920;28;19918;-92
2022/12/31 11:08:11;;;;;;;;;;;;;;;29.07;25.93;98334.59;4980900;28;19925;-92
2022/12/31 11:10:59;;;;;;;;;;;;;;;28.59;29.38;98335.97;4977246;28;20263;-91
2022/12/31 11:13:28;;;;;;;;;;;;;;;28.55;26.12;98345.78;4978754;28;19926;-92
2022/12/31 11:16:14;;;;;;;;;;;;;;;27.87;28.10;98336.00;4976463;28;19918;-92
2022/12/31 11:18:58;;;;;;;;;;;;;;;27.80;27.46;98355.19;4976782;28;19922;-93
2022/12/31 11:21:31;;;;;;;;;;;;;;;28.08;27.77;98362.75;4975134;28;19918;-92
2022/12/31 11:24:24;;;;;;;;;;;;;;;27.98;27.92;98364.66;4975554;28;19940;-93
2022/12/31 11:26:53;;;;;;;;;;;;;;;28.05;27.47;98358.81;4995172;28;19921;-93
2022/12/31 11:29:25;;;;;;;;;;;;;;;28.40;26.94;98373.75;4996242;28;19925;-92
2022/12/31 11:32:09;;;;;;;;;;;;;;;28.24;26.70;98359.03;4996501;28;19920;-91
2022/12/31 11:34:35;;;;;;;;;;;;;;;28.40;26.65;98356.03;4995789;28;19922;-93
2022/12/31 11:37:05;;;;;;;;;;;;;;;28.91;26.26;98348.94;4988541;28;19924;-93
2022/12/31 11:39:34;;;;;;;;;;;;;;;28.94;26.13;98345.16;4964444;28;20481;-92
2022/12/31 11:42:06;;;;;;;;;;;;;;;28.18;27.02;98358.78;4980347;28;19922;-93
2022/12/31 11:44:43;;;;;;;;;;;;;;;28.19;26.84;98354.72;4976615;28;19980;-95
2022/12/31 11:47:18;;;;;;;;;;;;;;;28.31;28.76;98350.28;4976146;28;19918;-91
2022/12/31 11:49:44;;;;;;;;;;;;;;;28.42;27.02;98351.50;4976069;28;19918;-92
2022/12/31 11:52:25;;;;;;;;;;;;;;;29.23;26.58;98340.06;4991421;28;19965;-91
2022/12/31 11:54:54;;;;;;;;;;;;;;;29.05;26.38;98337.09;4995655;28;19918;-91
2022/12/31 11:57:31;;;;;;;;;;;;;;;28.93;26.53;98342.81;4986215;28;19931;-92
2022/12/31 11:59:59;;;;;;;;;;;;;;;28.21;26.53;98343.78;4995270;28;20012;-91
2022/12/31 12:02:33;;;;;;;;;;;;;;;28.38;28.24;98333.88;4995140;28;19957;-91
2022/12/31 12:05:00;;;;;;;;;;;;;;;29.22;25.95;98341.28;4994704;28;19921;-93
2022/12/31 12:07:28;;;;;;;;;;;;;;;29.27;25.54;98331.41;4978001;28;19941;-93
2022/12/31 12:09:54;;;;;;;;;;;;;;;29.20;25.96;98332.47;4995192;28;19921;-94
2022/12/31 12:12:22;;;;;;;;;;;;;;;28.35;26.76;98334.81;4993862;28;20249;-93
2022/12/31 12:14:51;;;;;;;;;;;;;;;28.65;26.20;98322.03;4985704;28;19922;-93
2022/12/31 12:17:31;;;;;;;;;;;;;;;28.49;26.21;98319.38;4995146;28;19929;-94
2022/12/31 12:20:13;;;;;;;;;;;;;;;28.57;27.11;98323.50;4994900;28;20428;-92
2022/12/31 12:22:47;;;;;;;;;;;;;;;28.91;27.17;98329.16;4994809;28;19917;-93
2022/12/31 12:25:16;;;;;;;;;;;;;;;28.88;26.14;98334.91;4995160;28;19917;-93
2022/12/31 12:27:42;;;;;;;;;;;;;;;28.80;26.58;98336.44;4994760;28;19921;-93
2022/12/31 12:30:20;;;;;;;;;;;;;;;29.16;25.52;98331.00;4993305;28;19957;-93
2022/12/31 12:32:53;;;;;;;;;;;;;;;28.87;25.89;98334.13;4975847;28;19965;-92
2022/12/31 12:35:38;;;;;;;;;;;;;;;28.28;29.22;98326.59;4975372;28;20005;-93
2022/12/31 12:38:18;;;;;;;;;;;;;;;28.90;26.37;98323.94;4974887;28;19969;-94
2022/12/31 12:40:56;;;;;;;;;;;;;;;28.92;26.28;98322.22;4975086;28;19918;-93
2022/12/31 12:43:25;;;;;;;;;;;;;;;29.23;25.70;98322.28;4975433;28;20381;-94
2022/12/31 12:45:52;;;;;;;;;;;;;;;29.26;25.61;98322.16;4957604;28;19922;-92
2022/12/31 12:48:20;;;;;;;;;;;;;;;28.73;26.29;98326.16;4985311;28;20355;-92
2022/12/31 12:50:47;;;;;;;;;;;;;;;28.69;25.99;98325.53;4994360;28;19918;-93
2022/12/31 12:53:13;;;;;;;;;;;;;;;29.17;25.74;98324.13;4994434;28;19925;-93
2022/12/31 12:55:51;;;;;;;;;;;;;;;29.09;25.72;98323.59;4994362;28;19918;-93
2022/12/31 12:58:30;;;;;;;;;;;;;;;28.87;27.01;98322.81;4992781;28;19937;-93
2022/12/31 13:00:56;;;;;;;;;;;;;;;28.69;26.22;98322.69;4994103;28;19922;-92
2022/12/31 13:03:45;;;;;;;;;;;;;;;29.30;25.52;98319.19;4994383;28;19924;-93
2022/12/31 13:06:33;;;;;;;;;;;;;;;29.58;25.35;98322.91;4975100;28;19958;-93
2022/12/31 13:09:02;;;;;;;;;;;;;;;28.92;26.02;98324.25;4974753;28;19928;-92
2022/12/31 13:11:38;;;;;;;;;;;;;;;29.15;25.66;98327.38;4974815;28;19926;-94